KFLL

Fort Lauderdale / Hollywood International Airport

Fort Lauderdale, Florida, USA
METAR KFLL 220353Z AUTO 06011KT 10SM FEW040 SCT050 20/13 A3028 RMK AO2 SLP254 T02000133
Observed Flight Rules
Jan-22 @ 03:53 UTC (an hour ago) Visual Flight Rules
Wind Visibility Clouds
60° at 11 knots 10 miles
  • Few at 4,000' AGL
  • Scattered at 5,000' AGL
Temperatures Readings
Current 20°C / 68°F
Dewpoint 13°C / 55°F
Humidity 64%
Altimeter 30.28" Hg
Pressure 1025.4 hPa
Elevation 3
METAR KFLL 220353Z AUTO 06011KT 10SM FEW040 SCT050 20/13 A3028 RMK AO2 SLP254 T02000133
Observed Flight Rules
Jan-22 @ 03:53 UTC
(an hour ago)
VFR
Wind Visibility
60° at 11 knots 10 miles
Clouds
  • Few at 4,000' AGL
  • Scattered at 5,000' AGL
Temperature Dewpoint
20°C / 68°F 13°C / 55°F
Humidity Altimeter Pressure
64% 30.28" Hg 1025.4 hPa